createdAt,value
2019-03-09T00:02:35.630Z,6.30
2019-03-09T00:05:16.684Z,6.30
2019-03-09T00:07:57.015Z,6.30
2019-03-09T00:10:37.640Z,6.20
2019-03-09T00:13:18.227Z,6.20
2019-03-09T00:15:58.847Z,6.30
2019-03-09T00:18:39.693Z,6.30
2019-03-09T00:21:20.432Z,5.80
2019-03-09T00:24:20.490Z,6.30
2019-03-09T00:33:00.797Z,6.50
2019-03-09T00:35:41.434Z,6.40
2019-03-09T00:38:22.495Z,6.30
2019-03-09T00:41:02.990Z,6.20
2019-03-09T00:43:43.456Z,6.20
2019-03-09T00:46:24.393Z,6.20
2019-03-09T00:49:05.435Z,6.30
2019-03-09T00:51:46.241Z,6.20
2019-03-09T00:54:27.233Z,6.20
2019-03-09T00:57:08.106Z,6.20
2019-03-09T00:59:48.824Z,6.20
2019-03-09T01:02:29.521Z,6.30
2019-03-09T01:05:10.352Z,6.10
2019-03-09T01:07:50.826Z,6.20
2019-03-09T01:10:31.599Z,6.20
2019-03-09T01:13:13.184Z,6.20
2019-03-09T01:15:53.686Z,6.10
2019-03-09T01:18:34.046Z,6.10
2019-03-09T01:21:14.970Z,6.20
2019-03-09T01:23:55.905Z,6.20
2019-03-09T01:26:36.796Z,6.20
2019-03-09T01:29:17.483Z,6.20
2019-03-09T01:31:57.918Z,6.20
2019-03-09T01:34:38.860Z,6.20
2019-03-09T01:37:19.577Z,6.20
2019-03-09T01:40:00.285Z,6.20
2019-03-09T01:42:40.955Z,6.20
2019-03-09T01:45:21.270Z,6.20
2019-03-09T01:48:02.204Z,6.10
2019-03-09T01:50:42.562Z,6.10
2019-03-09T01:53:23.292Z,6.20
2019-03-09T01:56:03.816Z,6.10
2019-03-09T01:58:44.691Z,6.20
2019-03-09T02:01:25.361Z,6.10
2019-03-09T02:04:06.088Z,6.10
2019-03-09T02:06:46.906Z,6.10
2019-03-09T02:09:27.447Z,6.10
2019-03-09T02:12:08.140Z,6.10
2019-03-09T02:14:49.122Z,6.20
2019-03-09T02:17:30.051Z,6.10
2019-03-09T02:20:11.154Z,6.10
2019-03-09T02:22:51.990Z,6.10
2019-03-09T02:25:32.923Z,6.10
2019-03-09T02:28:13.556Z,6.20
2019-03-09T02:33:37.237Z,6.20
2019-03-09T02:36:17.872Z,6.30
2019-03-09T02:39:00.594Z,6.30
2019-03-09T02:41:41.613Z,6.30
2019-03-09T02:44:22.270Z,6.30
2019-03-09T02:47:02.796Z,6.40
2019-03-09T02:49:43.770Z,6.40
2019-03-09T02:52:24.543Z,6.40
2019-03-09T02:55:05.124Z,6.50
2019-03-09T02:57:45.895Z,6.60
2019-03-09T03:00:28.271Z,6.60
2019-03-09T03:03:09.820Z,6.60
2019-03-09T03:05:50.655Z,6.60
2019-03-09T03:08:31.434Z,6.70
2019-03-09T03:11:12.365Z,6.60
2019-03-09T03:13:53.320Z,6.60
2019-03-09T03:16:34.110Z,6.70
2019-03-09T03:19:14.738Z,6.70
2019-03-09T03:21:55.255Z,6.70
2019-03-09T03:24:36.156Z,6.60
2019-03-09T03:27:16.594Z,6.70
2019-03-09T03:29:57.507Z,6.70
2019-03-09T03:32:38.249Z,6.70
2019-03-09T03:35:18.759Z,6.60
2019-03-09T03:37:59.508Z,6.60
2019-03-09T03:40:40.426Z,6.60
2019-03-09T03:43:21.354Z,6.60
2019-03-09T03:46:02.166Z,6.60
2019-03-09T03:48:42.990Z,6.50
2019-03-09T03:51:23.928Z,6.50
2019-03-09T03:54:04.301Z,6.40
2019-03-09T03:56:47.275Z,6.60
2019-03-09T03:59:27.172Z,6.60
2019-03-09T04:02:07.756Z,6.60
2019-03-09T04:04:48.360Z,6.60
2019-03-09T04:07:29.149Z,6.60
2019-03-09T04:10:09.656Z,6.60
2019-03-09T04:12:50.673Z,6.60
2019-03-09T04:15:31.223Z,6.60
2019-03-09T04:18:12.152Z,6.60
2019-03-09T04:20:52.687Z,6.60
2019-03-09T04:23:33.370Z,6.50
2019-03-09T04:26:14.324Z,6.50
2019-03-09T04:28:55.225Z,5.10
2019-03-09T04:31:35.663Z,6.50
2019-03-09T04:34:16.312Z,6.50
2019-03-09T04:36:56.682Z,7.20
2019-03-09T04:39:37.289Z,6.50
2019-03-09T04:42:17.930Z,6.60
2019-03-09T04:44:58.815Z,6.60
2019-03-09T04:47:39.554Z,6.60
2019-03-09T04:50:20.190Z,6.50
2019-03-09T04:53:00.983Z,6.70
2019-03-09T04:55:41.641Z,6.70
2019-03-09T04:58:22.128Z,6.70
2019-03-09T05:01:02.983Z,6.70
2019-03-09T05:03:43.720Z,6.70
2019-03-09T05:06:24.377Z,6.80
2019-03-09T05:09:05.579Z,6.80
2019-03-09T05:11:46.051Z,6.80
2019-03-09T05:14:26.616Z,6.80
2019-03-09T05:17:07.578Z,6.80
2019-03-09T05:19:55.367Z,6.80
2019-03-09T05:22:43.152Z,6.80
2019-03-09T05:25:30.940Z,6.70
2019-03-09T05:28:11.581Z,6.80
2019-03-09T05:30:52.194Z,6.80
2019-03-09T05:33:32.790Z,6.70
2019-03-09T05:36:13.661Z,6.80
2019-03-09T05:38:54.075Z,6.70
2019-03-09T05:41:35.195Z,6.80
2019-03-09T05:44:16.055Z,6.10
2019-03-09T05:46:56.305Z,6.70
2019-03-09T05:49:37.165Z,6.80
2019-03-09T05:52:18.019Z,6.70
2019-03-09T05:54:58.936Z,5.70
2019-03-09T05:57:39.530Z,6.70
2019-03-09T06:00:20.177Z,6.70
2019-03-09T06:03:00.966Z,6.70
2019-03-09T06:05:41.878Z,6.70
2019-03-09T06:08:22.132Z,6.70
2019-03-09T06:11:02.823Z,6.60
2019-03-09T06:13:43.526Z,6.50
2019-03-09T06:16:23.970Z,6.60
2019-03-09T06:18:52.416Z,6.50
2019-03-09T06:21:40.202Z,6.50
2019-03-09T06:24:27.992Z,6.40
2019-03-09T06:27:08.535Z,6.40
2019-03-09T06:29:49.066Z,6.40
2019-03-09T06:32:30.003Z,6.40
2019-03-09T06:35:11.011Z,6.30
2019-03-09T06:37:51.659Z,6.30
2019-03-09T06:40:32.079Z,6.30
2019-03-09T06:43:12.647Z,6.40
2019-03-09T06:45:41.091Z,6.40
2019-03-09T06:48:28.884Z,6.30
2019-03-09T06:51:09.669Z,6.30
2019-03-09T06:53:50.711Z,5.30
2019-03-09T06:56:31.727Z,6.30
2019-03-09T06:59:12.467Z,6.30
2019-03-09T07:01:53.147Z,6.20
2019-03-09T07:04:33.919Z,6.10
2019-03-09T07:07:14.334Z,6.10
2019-03-09T07:09:55.386Z,6.20
2019-03-09T07:12:36.356Z,5.00
2019-03-09T07:15:17.174Z,6.30
2019-03-09T07:17:57.584Z,6.20
2019-03-09T07:20:38.148Z,6.20
2019-03-09T07:23:18.730Z,6.30
2019-03-09T07:25:59.396Z,6.40
2019-03-09T07:28:40.157Z,5.30
2019-03-09T07:31:21.088Z,6.50
2019-03-09T07:34:01.567Z,6.30
2019-03-09T07:36:42.483Z,6.50
2019-03-09T07:39:23.171Z,6.50
2019-03-09T07:42:03.604Z,6.50
2019-03-09T07:44:44.567Z,6.60
2019-03-09T07:47:25.134Z,6.70
2019-03-09T07:50:05.790Z,6.70
2019-03-09T07:52:46.542Z,6.70
2019-03-09T07:55:27.043Z,6.70
2019-03-09T07:58:07.907Z,6.70
2019-03-09T08:00:48.819Z,6.70
2019-03-09T08:03:29.483Z,5.80
2019-03-09T08:06:09.889Z,6.80
2019-03-09T08:08:50.947Z,6.90
2019-03-09T08:11:31.826Z,7.00
2019-03-09T08:14:12.406Z,7.10
2019-03-09T08:16:53.095Z,7.10
2019-03-09T08:19:34.167Z,7.20
2019-03-09T08:22:14.686Z,7.20
2019-03-09T08:24:55.296Z,7.00
2019-03-09T08:27:35.925Z,7.30
2019-03-09T08:30:16.519Z,7.40
2019-03-09T08:32:56.966Z,7.50
2019-03-09T08:35:37.379Z,7.50
2019-03-09T08:38:17.936Z,7.60
2019-03-09T08:40:58.594Z,7.80
2019-03-09T08:43:39.540Z,7.80
2019-03-09T08:46:20.118Z,7.90
2019-03-09T08:49:00.891Z,7.90
2019-03-09T08:51:41.580Z,7.90
2019-03-09T08:54:22.406Z,7.90
2019-03-09T08:57:03.335Z,8.00
2019-03-09T08:59:44.054Z,7.90
2019-03-09T09:02:24.728Z,7.80
2019-03-09T09:05:05.346Z,7.80
2019-03-09T09:07:46.006Z,7.90
2019-03-09T09:10:26.712Z,8.10
2019-03-09T09:13:07.233Z,8.20
2019-03-09T09:15:47.892Z,8.30
2019-03-09T09:18:28.346Z,8.40
2019-03-09T09:21:08.737Z,8.50
2019-03-09T09:23:49.140Z,8.60
2019-03-09T09:26:29.904Z,8.70
2019-03-09T09:29:10.535Z,9.00
2019-03-09T09:31:51.605Z,9.00
2019-03-09T09:34:32.191Z,9.20
2019-03-09T09:37:12.557Z,9.20
2019-03-09T09:39:53.183Z,9.40
2019-03-09T09:42:34.070Z,9.50
2019-03-09T09:45:14.616Z,9.60
2019-03-09T09:47:55.710Z,9.50
2019-03-09T09:50:36.197Z,9.60
2019-03-09T09:53:16.953Z,9.70
2019-03-09T09:55:57.563Z,9.70
2019-03-09T09:58:38.279Z,9.80
2019-03-09T10:01:06.732Z,9.60
2019-03-09T10:03:54.518Z,9.60
2019-03-09T10:06:42.338Z,9.70
2019-03-09T10:09:23.335Z,9.70
2019-03-09T10:12:04.324Z,9.70
2019-03-09T10:14:45.265Z,9.80
2019-03-09T10:17:25.912Z,10.00
2019-03-09T10:20:06.647Z,10.20
2019-03-09T10:22:47.531Z,10.40
2019-03-09T10:25:28.260Z,10.50
2019-03-09T10:28:09.003Z,10.50
2019-03-09T10:30:49.714Z,10.40
2019-03-09T10:33:30.564Z,10.20
2019-03-09T10:36:11.614Z,10.30
2019-03-09T10:38:52.249Z,10.20
2019-03-09T10:41:33.240Z,10.00
2019-03-09T10:44:13.732Z,10.10
2019-03-09T10:46:54.803Z,10.10
2019-03-09T10:49:35.595Z,10.10
2019-03-09T10:52:16.047Z,10.00
2019-03-09T10:54:56.583Z,9.20
2019-03-09T10:57:37.125Z,10.00
2019-03-09T11:00:18.043Z,10.00
2019-03-09T11:02:58.747Z,9.20
2019-03-09T11:05:39.578Z,10.00
2019-03-09T11:08:20.664Z,10.10
2019-03-09T11:11:01.201Z,10.10
2019-03-09T11:13:51.168Z,10.00
2019-03-09T11:16:23.699Z,10.00
2019-03-09T11:19:04.591Z,9.80
2019-03-09T11:21:45.361Z,10.20
2019-03-09T11:24:13.891Z,10.30
2019-03-09T11:27:01.679Z,10.40
2019-03-09T11:29:42.220Z,10.40
2019-03-09T11:32:23.074Z,10.40
2019-03-09T11:35:03.812Z,10.30
2019-03-09T11:37:44.504Z,10.20
2019-03-09T11:40:25.406Z,10.20
2019-03-09T11:43:05.933Z,10.30
2019-03-09T11:45:46.417Z,10.50
2019-03-09T11:48:27.191Z,10.60
2019-03-09T11:50:55.650Z,10.60
2019-03-09T11:53:43.432Z,10.60
2019-03-09T11:56:24.415Z,10.70
2019-03-09T11:59:05.396Z,10.70
2019-03-09T12:01:46.547Z,10.70
2019-03-09T12:04:27.407Z,10.80
2019-03-09T12:07:08.454Z,10.80
2019-03-09T12:09:49.191Z,10.80
2019-03-09T12:12:30.200Z,10.70
2019-03-09T12:15:11.107Z,10.70
2019-03-09T12:17:51.866Z,10.60
2019-03-09T12:20:32.896Z,10.60
2019-03-09T12:23:13.507Z,10.50
2019-03-09T12:25:54.248Z,10.50
2019-03-09T12:28:35.030Z,10.50
2019-03-09T12:31:15.698Z,10.60
2019-03-09T12:33:56.443Z,10.50
2019-03-09T12:36:37.084Z,10.80
2019-03-09T12:39:18.979Z,10.90
2019-03-09T12:41:59.963Z,11.00
2019-03-09T12:44:40.987Z,11.10
2019-03-09T12:47:28.635Z,11.10
2019-03-09T12:50:27.849Z,11.20
2019-03-09T12:53:15.645Z,11.40
2019-03-09T12:55:56.187Z,11.60
2019-03-09T12:58:37.225Z,11.70
2019-03-09T13:01:17.903Z,11.70
2019-03-09T13:03:58.807Z,11.80
2019-03-09T13:06:39.376Z,11.70
2019-03-09T13:09:19.619Z,11.70
2019-03-09T13:11:59.948Z,11.50
2019-03-09T13:14:41.091Z,11.50
2019-03-09T13:17:22.079Z,11.40
2019-03-09T13:20:02.741Z,11.70
2019-03-09T13:22:43.639Z,11.80
2019-03-09T13:25:24.521Z,11.80
2019-03-09T13:28:05.334Z,11.70
2019-03-09T13:30:46.125Z,11.60
2019-03-09T13:33:27.071Z,11.60
2019-03-09T13:36:08.095Z,11.60
2019-03-09T13:38:48.523Z,11.50
2019-03-09T13:41:29.058Z,11.50
2019-03-09T13:44:09.707Z,11.40
2019-03-09T13:46:50.307Z,11.30
2019-03-09T13:49:30.900Z,11.30
2019-03-09T13:52:11.516Z,11.30
2019-03-09T13:54:52.541Z,11.30
2019-03-09T13:57:33.078Z,11.30
2019-03-09T14:00:13.529Z,11.20
2019-03-09T14:02:54.210Z,11.20
2019-03-09T14:05:35.160Z,11.20
2019-03-09T14:08:15.426Z,11.30
2019-03-09T14:10:56.191Z,11.50
2019-03-09T14:13:36.449Z,11.60
2019-03-09T14:16:17.268Z,11.60
2019-03-09T14:18:57.772Z,11.60
2019-03-09T14:21:38.419Z,11.60
2019-03-09T14:24:19.155Z,11.50
2019-03-09T14:26:59.765Z,11.60
2019-03-09T14:29:40.510Z,11.60
2019-03-09T14:32:21.027Z,11.50
2019-03-09T14:35:01.874Z,11.50
2019-03-09T14:37:43.036Z,11.20
2019-03-09T14:40:24.133Z,11.30
2019-03-09T14:43:04.755Z,11.30
2019-03-09T14:45:45.051Z,11.30
2019-03-09T14:48:25.914Z,11.40
2019-03-09T14:51:08.158Z,11.40
2019-03-09T14:53:49.274Z,10.60
2019-03-09T14:56:29.786Z,11.50
2019-03-09T14:59:10.458Z,11.40
2019-03-09T15:01:51.075Z,11.40
2019-03-09T15:04:31.367Z,11.40
2019-03-09T15:07:12.413Z,11.40
2019-03-09T15:09:53.539Z,11.40
2019-03-09T15:12:34.436Z,11.40
2019-03-09T15:15:14.903Z,11.40
2019-03-09T15:17:55.499Z,11.40
2019-03-09T15:20:36.270Z,11.40
2019-03-09T15:23:16.953Z,11.30
2019-03-09T15:25:57.583Z,11.00
2019-03-09T15:28:38.166Z,10.80
2019-03-09T15:31:18.756Z,10.80
2019-03-09T15:33:59.727Z,10.70
2019-03-09T15:36:40.453Z,10.60
2019-03-09T15:39:21.395Z,10.60
2019-03-09T15:42:02.075Z,10.50
2019-03-09T15:44:42.983Z,10.50
2019-03-09T15:47:23.927Z,10.40
2019-03-09T15:50:04.786Z,10.40
2019-03-09T15:52:45.709Z,10.40
2019-03-09T15:55:26.371Z,10.50
2019-03-09T15:57:54.837Z,10.40
2019-03-09T16:00:42.682Z,10.40
2019-03-09T16:03:23.419Z,10.40
2019-03-09T16:06:03.863Z,10.40
2019-03-09T16:08:44.691Z,10.40
2019-03-09T16:11:25.307Z,10.10
2019-03-09T16:14:06.274Z,9.90
2019-03-09T16:16:46.725Z,9.80
2019-03-09T16:19:27.492Z,9.70
2019-03-09T16:22:08.057Z,9.60
2019-03-09T16:24:48.651Z,9.50
2019-03-09T16:27:29.324Z,9.20
2019-03-09T16:30:10.228Z,8.20
2019-03-09T16:32:51.140Z,7.80
2019-03-09T16:35:31.680Z,7.60
2019-03-09T16:38:12.433Z,7.50
2019-03-09T16:40:52.817Z,7.40
2019-03-09T16:43:33.120Z,7.40
2019-03-09T16:46:14.050Z,7.30
2019-03-09T16:48:54.627Z,7.20
2019-03-09T16:51:35.148Z,7.20
2019-03-09T16:54:15.984Z,7.20
2019-03-09T16:56:57.158Z,7.20
2019-03-09T16:59:38.050Z,7.20
2019-03-09T17:02:27.520Z,7.00
2019-03-09T17:05:01.700Z,7.00
2019-03-09T17:07:42.593Z,7.00
2019-03-09T17:10:23.495Z,6.90
2019-03-09T17:13:04.410Z,7.00
2019-03-09T17:15:45.105Z,6.90
2019-03-09T17:18:25.595Z,6.80
2019-03-09T17:21:06.790Z,6.80
2019-03-09T17:23:47.662Z,6.80
2019-03-09T17:26:28.510Z,6.80
2019-03-09T17:29:09.492Z,6.90
2019-03-09T17:31:50.026Z,7.00
2019-03-09T17:34:30.710Z,7.10
2019-03-09T17:37:11.392Z,7.00
2019-03-09T17:39:52.368Z,7.00
2019-03-09T17:42:32.808Z,7.20
2019-03-09T17:45:13.180Z,7.20
2019-03-09T17:47:53.654Z,7.10
2019-03-09T17:50:34.132Z,7.10
2019-03-09T17:53:14.784Z,6.90
2019-03-09T17:55:55.549Z,6.80
2019-03-09T17:58:36.090Z,6.70
2019-03-09T18:01:16.650Z,6.60
2019-03-09T18:03:57.463Z,6.50
2019-03-09T18:06:38.123Z,6.40
2019-03-09T18:09:18.955Z,6.50
2019-03-09T18:11:59.267Z,6.40
2019-03-09T18:14:40.249Z,6.30
2019-03-09T18:17:21.152Z,6.20
2019-03-09T18:20:01.769Z,6.20
2019-03-09T18:22:42.566Z,6.10
2019-03-09T18:25:23.497Z,6.10
2019-03-09T18:28:04.232Z,6.10
2019-03-09T18:30:44.854Z,6.00
2019-03-09T18:33:25.750Z,6.10
2019-03-09T18:36:06.249Z,6.20
2019-03-09T18:38:34.758Z,6.10
2019-03-09T18:41:22.562Z,6.10
2019-03-09T18:44:10.355Z,6.00
2019-03-09T18:46:50.759Z,6.10
2019-03-09T18:49:31.353Z,6.10
2019-03-09T18:52:11.819Z,6.10
2019-03-09T18:54:52.734Z,6.20
2019-03-09T18:57:33.258Z,6.30
2019-03-09T19:00:13.708Z,6.30
2019-03-09T19:02:54.759Z,6.30
2019-03-09T19:05:35.755Z,6.30
2019-03-09T19:08:16.449Z,6.30
2019-03-09T19:10:57.658Z,6.30
2019-03-09T19:13:38.522Z,6.30
2019-03-09T19:16:19.209Z,6.40
2019-03-09T19:18:59.901Z,6.50
2019-03-09T19:21:40.397Z,6.50
2019-03-09T19:24:20.978Z,6.50
2019-03-09T19:27:01.407Z,5.80
2019-03-09T19:29:42.427Z,6.60
2019-03-09T19:32:22.902Z,6.60
2019-03-09T19:35:03.803Z,6.60
2019-03-09T19:37:44.546Z,6.70
2019-03-09T19:40:24.859Z,6.70
2019-03-09T19:43:05.474Z,6.70
2019-03-09T19:45:46.363Z,5.90
2019-03-09T19:48:14.810Z,6.80
2019-03-09T19:51:02.600Z,6.80
2019-03-09T19:53:50.379Z,6.40
2019-03-09T19:56:31.048Z,6.90
2019-03-09T19:59:11.533Z,6.90
2019-03-09T20:01:52.197Z,6.90
2019-03-09T20:04:32.891Z,6.90
2019-03-09T20:07:13.551Z,6.00
2019-03-09T20:09:53.970Z,7.00
2019-03-09T20:12:34.551Z,7.00
2019-03-09T20:15:15.135Z,7.00
2019-03-09T20:17:56.094Z,7.10
2019-03-09T20:20:36.727Z,7.10
2019-03-09T20:23:17.283Z,7.00
2019-03-09T20:25:58.307Z,7.00
2019-03-09T20:28:39.010Z,6.80
2019-03-09T20:31:19.829Z,6.80
2019-03-09T20:34:00.224Z,6.70
2019-03-09T20:36:40.943Z,6.60
2019-03-09T20:42:04.870Z,6.50
2019-03-09T20:44:45.725Z,6.50
2019-03-09T20:47:26.297Z,6.50
2019-03-09T20:50:06.983Z,6.60
2019-03-09T20:52:47.447Z,6.60
2019-03-09T20:55:28.641Z,6.50
2019-03-09T20:58:09.564Z,6.60
2019-03-09T21:00:50.196Z,6.50
2019-03-09T21:03:31.101Z,6.50
2019-03-09T21:06:11.615Z,6.40
2019-03-09T21:08:52.310Z,6.40
2019-03-09T21:11:33.024Z,6.40
2019-03-09T21:14:13.848Z,6.30
2019-03-09T21:16:54.605Z,6.30
2019-03-09T21:19:35.523Z,6.20
2019-03-09T21:22:15.992Z,6.20
2019-03-09T21:24:56.791Z,6.10
2019-03-09T21:27:37.539Z,6.10
2019-03-09T21:30:18.562Z,6.10
2019-03-09T21:32:59.097Z,5.10
2019-03-09T21:35:39.697Z,5.00
2019-03-09T21:38:20.731Z,5.90
2019-03-09T21:41:01.791Z,5.80
2019-03-09T21:43:42.645Z,5.80
2019-03-09T21:46:23.727Z,5.70
2019-03-09T21:49:04.377Z,5.70
2019-03-09T21:51:45.231Z,5.60
2019-03-09T21:54:26.294Z,5.50
2019-03-09T21:57:07.067Z,5.40
2019-03-09T21:59:47.975Z,5.40
2019-03-09T22:02:28.687Z,5.40
2019-03-09T22:05:09.330Z,5.30
2019-03-09T22:07:50.467Z,4.10
2019-03-09T22:10:31.070Z,5.30
2019-03-09T22:13:11.921Z,5.30
2019-03-09T22:15:52.535Z,5.30
2019-03-09T22:18:33.395Z,5.30
2019-03-09T22:21:14.034Z,5.30
2019-03-09T22:23:54.532Z,5.30
2019-03-09T22:26:35.099Z,5.30
2019-03-09T22:29:15.971Z,5.30
2019-03-09T22:31:56.600Z,5.30
2019-03-09T22:34:37.360Z,5.30
2019-03-09T22:37:18.200Z,5.30
2019-03-09T22:39:58.962Z,5.30
2019-03-09T22:42:39.918Z,5.20
2019-03-09T22:45:20.597Z,5.20
2019-03-09T22:48:01.034Z,5.20
2019-03-09T22:50:41.835Z,5.10
2019-03-09T22:53:22.588Z,5.10
2019-03-09T22:56:03.447Z,5.00
2019-03-09T22:58:44.136Z,5.00
2019-03-09T23:01:24.977Z,5.00
2019-03-09T23:04:06.688Z,5.10
2019-03-09T23:06:47.775Z,5.10
2019-03-09T23:09:28.626Z,5.10
2019-03-09T23:12:09.279Z,5.10
2019-03-09T23:14:49.746Z,5.00
2019-03-09T23:17:30.694Z,4.10
2019-03-09T23:20:11.522Z,5.00
2019-03-09T23:22:52.195Z,5.10
2019-03-09T23:25:32.980Z,5.10
2019-03-09T23:28:13.472Z,5.10
2019-03-09T23:30:54.687Z,5.00
2019-03-09T23:33:35.644Z,5.00
2019-03-09T23:36:15.906Z,5.00
2019-03-09T23:38:56.811Z,4.90
2019-03-09T23:41:37.283Z,5.00
2019-03-09T23:44:17.651Z,4.90
2019-03-09T23:46:57.975Z,4.90
2019-03-09T23:49:38.923Z,4.90
2019-03-09T23:52:19.620Z,4.90
2019-03-09T23:55:00.542Z,4.90
2019-03-09T23:57:40.995Z,4.90
